createdAt,value
2018-03-02T00:00:32.287Z,-2.72
2018-03-02T00:03:00.399Z,-2.58
2018-03-02T00:05:28.549Z,-2.67
2018-03-02T00:07:56.643Z,-2.75
2018-03-02T00:10:24.744Z,-2.70
2018-03-02T00:12:52.858Z,-2.73
2018-03-02T00:15:20.971Z,-2.91
2018-03-02T00:17:49.084Z,-2.88
2018-03-02T00:20:17.218Z,-2.80
2018-03-02T00:22:45.656Z,-2.79
2018-03-02T00:25:13.773Z,-2.80
2018-03-02T00:27:41.894Z,-2.72
2018-03-02T00:30:10.215Z,-2.89
2018-03-02T00:32:38.352Z,-3.04
2018-03-02T00:35:06.466Z,-2.82
2018-03-02T00:37:34.596Z,-2.81
2018-03-02T00:40:02.728Z,-2.87
2018-03-02T00:42:30.858Z,-2.92
2018-03-02T00:44:58.976Z,-2.95
2018-03-02T00:47:27.079Z,-2.86
2018-03-02T00:49:55.211Z,-2.93
2018-03-02T00:52:23.308Z,-2.86
2018-03-02T00:54:51.422Z,-3.13
2018-03-02T00:57:22.646Z,-3.00
2018-03-02T00:59:50.791Z,-2.95
2018-03-02T01:02:18.914Z,-3.42
2018-03-02T01:04:47.023Z,-3.21
2018-03-02T01:07:15.182Z,-3.03
2018-03-02T01:09:43.298Z,-3.22
2018-03-02T01:12:11.409Z,-3.27
2018-03-02T01:14:39.522Z,-3.26
2018-03-02T01:17:07.631Z,-2.94
2018-03-02T01:19:35.739Z,-3.28
2018-03-02T01:22:03.859Z,-3.40
2018-03-02T01:24:31.981Z,-3.40
2018-03-02T01:27:00.094Z,-3.26
2018-03-02T01:29:28.224Z,-3.37
2018-03-02T01:31:56.335Z,-3.30
2018-03-02T01:34:24.461Z,-3.37
2018-03-02T01:36:52.604Z,-3.44
2018-03-02T01:39:20.699Z,-3.37
2018-03-02T01:41:48.819Z,-3.31
2018-03-02T01:44:16.953Z,-3.30
2018-03-02T01:46:45.060Z,-3.35
2018-03-02T01:49:13.169Z,-3.29
2018-03-02T01:51:47.936Z,-3.22
2018-03-02T01:54:16.037Z,-3.42
2018-03-02T01:56:44.143Z,-3.36
2018-03-02T01:59:12.260Z,-3.33
2018-03-02T02:01:40.366Z,-3.44
2018-03-02T02:04:08.497Z,-3.29
2018-03-02T02:06:36.599Z,-3.54
2018-03-02T02:09:05.603Z,-3.59
2018-03-02T02:11:33.729Z,-3.43
2018-03-02T02:14:01.837Z,-3.42
2018-03-02T02:16:29.964Z,-3.61
2018-03-02T02:18:58.059Z,-3.56
2018-03-02T02:21:26.163Z,-3.61
2018-03-02T02:23:54.296Z,-3.46
2018-03-02T02:26:22.398Z,-3.39
2018-03-02T02:28:50.516Z,-3.31
2018-03-02T02:31:18.640Z,-3.70
2018-03-02T02:33:46.735Z,-3.61
2018-03-02T02:36:14.843Z,-3.51
2018-03-02T02:38:42.988Z,-3.56
2018-03-02T02:41:11.183Z,-3.51
2018-03-02T02:43:39.314Z,-3.73
2018-03-02T02:46:07.431Z,-3.71
2018-03-02T02:48:35.531Z,-3.71
2018-03-02T02:51:03.634Z,-3.79
2018-03-02T02:53:31.769Z,-3.59
2018-03-02T02:55:59.875Z,-3.72
2018-03-02T02:58:27.982Z,-3.51
2018-03-02T03:00:56.122Z,-3.71
2018-03-02T03:03:24.223Z,-3.54
2018-03-02T03:05:52.332Z,-3.48
2018-03-02T03:08:20.443Z,-3.61
2018-03-02T03:10:48.554Z,-3.50
2018-03-02T03:13:16.673Z,-3.64
2018-03-02T03:15:44.793Z,-3.45
2018-03-02T03:18:12.933Z,-3.78
2018-03-02T03:20:41.026Z,-3.86
2018-03-02T03:23:09.143Z,-3.67
2018-03-02T03:25:37.278Z,-3.55
2018-03-02T03:28:05.385Z,-3.70
2018-03-02T03:30:33.503Z,-3.55
2018-03-02T03:33:01.625Z,-3.60
2018-03-02T03:35:29.831Z,-3.65
2018-03-02T03:37:57.936Z,-3.63
2018-03-02T03:40:26.060Z,-3.93
2018-03-02T03:42:54.214Z,-3.76
2018-03-02T03:45:22.342Z,-3.88
2018-03-02T03:47:50.464Z,-3.81
2018-03-02T03:50:18.605Z,-3.99
2018-03-02T03:52:46.750Z,-3.70
2018-03-02T03:55:14.858Z,-3.75
2018-03-02T03:57:42.990Z,-3.92
2018-03-02T04:00:11.121Z,-3.96
2018-03-02T04:02:39.224Z,-3.98
2018-03-02T04:05:08.237Z,-3.89
2018-03-02T04:07:36.438Z,-3.98
2018-03-02T04:10:04.501Z,-4.06
2018-03-02T04:12:32.615Z,-3.88
2018-03-02T04:15:00.745Z,-4.33
2018-03-02T04:17:28.864Z,-4.03
2018-03-02T04:19:57.000Z,-3.95
2018-03-02T04:22:25.122Z,-4.17
2018-03-02T04:24:53.244Z,-4.11
2018-03-02T04:27:21.363Z,-4.09
2018-03-02T04:29:49.501Z,-4.26
2018-03-02T04:32:17.625Z,-4.30
2018-03-02T04:34:45.764Z,-4.17
2018-03-02T04:37:13.900Z,-4.24
2018-03-02T04:39:41.995Z,-4.32
2018-03-02T04:42:10.107Z,-4.23
2018-03-02T04:44:38.238Z,-4.32
2018-03-02T04:47:06.339Z,-4.31
2018-03-02T04:49:34.462Z,-4.26
2018-03-02T04:52:02.577Z,-4.25
2018-03-02T04:54:30.719Z,-4.26
2018-03-02T04:56:58.842Z,-4.27
2018-03-02T04:59:26.946Z,-4.24
2018-03-02T05:01:55.076Z,-4.30
2018-03-02T05:04:23.212Z,-4.23
2018-03-02T05:06:51.336Z,-4.12
2018-03-02T05:09:19.541Z,-4.32
2018-03-02T05:11:47.671Z,-4.33
2018-03-02T05:14:15.789Z,-4.37
2018-03-02T05:16:43.902Z,-4.37
2018-03-02T05:19:12.060Z,-4.31
2018-03-02T05:21:40.157Z,-4.21
2018-03-02T05:24:08.263Z,-4.35
2018-03-02T05:26:36.387Z,-4.16
2018-03-02T05:29:04.499Z,-4.16
2018-03-02T05:31:32.636Z,-4.18
2018-03-02T05:34:00.749Z,-4.40
2018-03-02T05:36:28.880Z,-4.22
2018-03-02T05:38:56.993Z,-4.08
2018-03-02T05:41:25.125Z,-4.03
2018-03-02T05:43:53.249Z,-4.01
2018-03-02T05:46:21.355Z,-4.24
2018-03-02T05:48:49.494Z,-4.19
2018-03-02T05:51:17.618Z,-4.01
2018-03-02T05:53:45.749Z,-3.91
2018-03-02T05:56:13.875Z,-3.82
2018-03-02T05:58:41.992Z,-4.18
2018-03-02T06:01:10.120Z,-4.19
2018-03-02T06:03:38.244Z,-4.47
2018-03-02T06:06:06.372Z,-4.37
2018-03-02T06:08:34.501Z,-4.17
2018-03-02T06:11:02.625Z,-4.26
2018-03-02T06:13:30.741Z,-4.23
2018-03-02T06:15:58.885Z,-4.25
2018-03-02T06:18:27.040Z,-4.22
2018-03-02T06:20:55.157Z,-4.31
2018-03-02T06:23:23.312Z,-4.27
2018-03-02T06:25:51.437Z,-4.42
2018-03-02T06:28:19.585Z,-4.39
2018-03-02T06:30:47.719Z,-4.31
2018-03-02T06:33:15.839Z,-4.26
2018-03-02T06:35:43.950Z,-4.27
2018-03-02T06:38:12.081Z,-4.36
2018-03-02T06:40:40.603Z,-4.05
2018-03-02T06:43:08.731Z,-4.18
2018-03-02T06:45:36.846Z,-4.69
2018-03-02T06:48:04.959Z,-4.47
2018-03-02T06:50:33.100Z,-4.60
2018-03-02T06:53:01.207Z,-4.10
2018-03-02T06:55:29.357Z,-4.20
2018-03-02T06:57:57.468Z,-3.95
2018-03-02T07:00:25.594Z,-4.58
2018-03-02T07:02:53.746Z,-4.27
2018-03-02T07:05:21.867Z,-4.06
2018-03-02T07:07:49.971Z,-4.30
2018-03-02T07:10:18.107Z,-4.06
2018-03-02T07:12:46.215Z,-3.59
2018-03-02T07:15:14.341Z,-3.83
2018-03-02T07:17:42.455Z,-3.29
2018-03-02T07:20:10.597Z,-3.68
2018-03-02T07:22:38.710Z,-3.56
2018-03-02T07:25:06.843Z,-3.56
2018-03-02T07:27:34.979Z,-2.98
2018-03-02T07:30:03.117Z,-3.48
2018-03-02T07:32:31.235Z,-3.52
2018-03-02T07:34:59.353Z,-3.18
2018-03-02T07:37:27.508Z,-3.22
2018-03-02T07:39:55.629Z,-3.54
2018-03-02T07:42:23.749Z,-3.59
2018-03-02T07:44:51.867Z,-3.57
2018-03-02T07:47:19.967Z,-2.90
2018-03-02T07:49:48.114Z,-3.20
2018-03-02T07:52:16.211Z,-2.75
2018-03-02T07:54:44.341Z,-3.16
2018-03-02T07:57:12.453Z,-3.01
2018-03-02T07:59:40.558Z,-2.76
2018-03-02T08:02:08.685Z,-2.34
2018-03-02T08:04:36.806Z,-2.52
2018-03-02T08:07:04.938Z,-2.81
2018-03-02T08:09:33.043Z,-2.55
2018-03-02T08:12:01.177Z,-2.31
2018-03-02T08:14:29.289Z,-2.93
2018-03-02T08:16:57.417Z,-1.96
2018-03-02T08:19:25.561Z,-2.07
2018-03-02T08:21:53.673Z,-2.35
2018-03-02T08:24:21.778Z,-2.37
2018-03-02T08:26:49.903Z,-1.46
2018-03-02T08:29:18.033Z,-2.16
2018-03-02T08:31:46.164Z,-2.18
2018-03-02T08:34:14.278Z,-1.99
2018-03-02T08:36:42.404Z,-1.53
2018-03-02T08:39:10.515Z,-2.15
2018-03-02T08:41:38.650Z,-1.99
2018-03-02T08:44:06.757Z,-1.24
2018-03-02T08:46:34.865Z,-1.26
2018-03-02T08:49:03.038Z,-1.06
2018-03-02T08:51:31.175Z,-1.25
2018-03-02T08:53:59.284Z,-1.25
2018-03-02T08:56:27.409Z,-1.37
2018-03-02T08:58:55.529Z,-1.44
2018-03-02T09:01:23.649Z,-1.57
2018-03-02T09:03:51.764Z,-1.47
2018-03-02T09:06:19.871Z,-1.93
2018-03-02T09:08:47.998Z,-1.45
2018-03-02T09:11:16.146Z,-1.97
2018-03-02T09:13:44.239Z,-2.52
2018-03-02T09:16:12.381Z,-2.36
2018-03-02T09:18:40.493Z,-2.29
2018-03-02T09:21:08.618Z,-2.09
2018-03-02T09:23:36.752Z,-2.30
2018-03-02T09:26:05.129Z,-2.27
2018-03-02T09:28:33.259Z,-2.05
2018-03-02T09:31:01.386Z,-1.82
2018-03-02T09:33:29.501Z,-1.65
2018-03-02T09:35:57.620Z,-1.76
2018-03-02T09:38:25.748Z,-1.27
2018-03-02T09:40:54.210Z,-1.39
2018-03-02T09:43:22.316Z,-1.43
2018-03-02T09:45:50.436Z,-1.84
2018-03-02T09:48:18.585Z,-1.50
2018-03-02T09:50:46.689Z,-1.34
2018-03-02T09:53:14.843Z,-1.70
2018-03-02T09:55:42.963Z,-1.78
2018-03-02T09:58:11.391Z,-1.61
2018-03-02T10:00:45.833Z,-0.89
2018-03-02T10:03:13.955Z,-0.31
2018-03-02T10:05:42.054Z,-0.99
2018-03-02T10:08:10.208Z,-1.01
2018-03-02T10:10:38.328Z,-0.65
2018-03-02T10:13:06.436Z,-1.18
2018-03-02T10:15:34.560Z,-0.78
2018-03-02T10:18:02.668Z,-0.54
2018-03-02T10:20:30.773Z,0.05
2018-03-02T10:22:59.787Z,-0.55
2018-03-02T10:25:27.899Z,-0.41
2018-03-02T10:27:56.033Z,-0.94
2018-03-02T10:30:24.155Z,-0.36
2018-03-02T10:32:52.277Z,-0.42
2018-03-02T10:35:20.431Z,-0.20
2018-03-02T10:37:48.550Z,-0.38
2018-03-02T10:40:16.677Z,-0.56
2018-03-02T10:42:44.820Z,-0.04
2018-03-02T10:45:12.941Z,0.07
2018-03-02T10:47:41.069Z,-0.30
2018-03-02T10:50:09.187Z,0.03
2018-03-02T10:52:37.316Z,-0.10
2018-03-02T10:55:05.432Z,0.11
2018-03-02T10:57:33.629Z,-0.23
2018-03-02T11:00:01.736Z,-0.26
2018-03-02T11:02:29.845Z,0.14
2018-03-02T11:05:03.536Z,0.40
2018-03-02T11:07:31.635Z,0.38
2018-03-02T11:09:59.738Z,0.87
2018-03-02T11:12:31.092Z,1.08
2018-03-02T11:14:59.219Z,0.92
2018-03-02T11:17:27.345Z,0.82
2018-03-02T11:19:55.448Z,0.57
2018-03-02T11:22:23.555Z,0.68
2018-03-02T11:24:51.683Z,0.30
2018-03-02T11:27:19.794Z,0.87
2018-03-02T11:29:47.890Z,1.16
2018-03-02T11:32:16.055Z,0.94
2018-03-02T11:34:44.205Z,0.99
2018-03-02T11:37:12.309Z,1.34
2018-03-02T11:39:40.469Z,1.07
2018-03-02T11:42:08.571Z,1.61
2018-03-02T11:44:36.672Z,2.00
2018-03-02T11:47:04.846Z,1.67
2018-03-02T11:49:32.901Z,1.06
2018-03-02T11:52:01.020Z,1.00
2018-03-02T11:54:29.188Z,1.12
2018-03-02T11:56:57.286Z,1.41
2018-03-02T11:59:27.376Z,1.38
2018-03-02T12:01:55.498Z,1.32
2018-03-02T12:04:23.604Z,1.13
2018-03-02T12:06:51.734Z,1.10
2018-03-02T12:09:19.861Z,1.20
2018-03-02T12:11:47.969Z,1.39
2018-03-02T12:14:16.088Z,1.14
2018-03-02T12:16:44.288Z,1.22
2018-03-02T12:19:12.419Z,1.23
2018-03-02T12:21:40.555Z,1.63
2018-03-02T12:24:08.660Z,1.70
2018-03-02T12:26:36.801Z,1.97
2018-03-02T12:29:04.920Z,1.98
2018-03-02T12:31:33.019Z,1.83
2018-03-02T12:34:01.136Z,1.99
2018-03-02T12:36:32.758Z,2.14
2018-03-02T12:39:00.891Z,1.74
2018-03-02T12:41:28.988Z,2.62
2018-03-02T12:43:57.124Z,2.49
2018-03-02T12:46:26.160Z,2.59
2018-03-02T12:48:54.264Z,2.10
2018-03-02T12:51:22.386Z,1.84
2018-03-02T12:53:50.629Z,1.91
2018-03-02T12:56:19.455Z,1.66
2018-03-02T12:58:47.590Z,1.79
2018-03-02T13:01:15.708Z,2.07
2018-03-02T13:03:43.893Z,1.92
2018-03-02T13:06:12.000Z,1.80
2018-03-02T13:08:40.136Z,1.84
2018-03-02T13:11:08.265Z,1.90
2018-03-02T13:13:36.379Z,1.85
2018-03-02T13:16:04.501Z,1.74
2018-03-02T13:18:42.480Z,2.19
2018-03-02T13:21:10.605Z,1.98
2018-03-02T13:23:38.719Z,1.81
2018-03-02T13:26:06.858Z,1.94
2018-03-02T13:28:46.784Z,2.02
2018-03-02T13:31:14.909Z,1.80
2018-03-02T13:33:54.913Z,1.93
2018-03-02T13:36:23.035Z,2.03
2018-03-02T13:38:51.154Z,1.96
2018-03-02T13:41:31.157Z,2.25
2018-03-02T13:44:02.505Z,2.09
2018-03-02T13:46:30.646Z,2.12
2018-03-02T13:49:10.533Z,1.81
2018-03-02T13:51:38.661Z,1.83
2018-03-02T13:54:06.787Z,2.03
2018-03-02T13:56:46.724Z,2.06
2018-03-02T13:59:14.849Z,1.98
2018-03-02T14:01:42.968Z,2.46
2018-03-02T14:04:23.103Z,2.58
2018-03-02T14:06:51.222Z,2.21
2018-03-02T14:09:19.354Z,2.20
2018-03-02T14:11:47.525Z,1.91
2018-03-02T14:14:15.647Z,1.99
2018-03-02T14:16:47.396Z,2.20
2018-03-02T14:19:15.534Z,2.06
2018-03-02T14:21:43.667Z,1.85
2018-03-02T14:24:11.786Z,2.04
2018-03-02T14:26:39.901Z,1.86
2018-03-02T14:29:08.149Z,1.98
2018-03-02T14:31:37.127Z,2.04
2018-03-02T14:34:05.308Z,1.87
2018-03-02T14:36:33.372Z,2.12
2018-03-02T14:39:01.500Z,2.23
2018-03-02T14:41:29.603Z,2.22
2018-03-02T14:43:57.722Z,2.33
2018-03-02T14:46:25.865Z,2.19
2018-03-02T14:48:53.994Z,2.33
2018-03-02T14:51:22.117Z,2.53
2018-03-02T14:53:50.254Z,2.41
2018-03-02T14:56:18.374Z,2.17
2018-03-02T14:58:46.496Z,1.89
2018-03-02T15:01:14.615Z,2.30
2018-03-02T15:03:42.710Z,2.00
2018-03-02T15:06:14.557Z,2.60
2018-03-02T15:08:42.700Z,2.14
2018-03-02T15:11:10.946Z,2.24
2018-03-02T15:13:39.083Z,1.89
2018-03-02T15:16:07.213Z,2.09
2018-03-02T15:18:35.319Z,2.14
2018-03-02T15:21:03.477Z,2.14
2018-03-02T15:23:31.875Z,1.81
2018-03-02T15:26:00.009Z,1.89
2018-03-02T15:28:28.149Z,2.06
2018-03-02T15:30:56.283Z,1.82
2018-03-02T15:33:24.387Z,1.96
2018-03-02T15:35:52.562Z,1.99
2018-03-02T15:38:20.674Z,1.81
2018-03-02T15:40:48.863Z,1.76
2018-03-02T15:43:17.009Z,1.97
2018-03-02T15:45:45.132Z,1.77
2018-03-02T15:48:13.259Z,1.74
2018-03-02T15:50:41.405Z,1.85
2018-03-02T15:53:09.531Z,1.74
2018-03-02T15:55:37.623Z,1.86
2018-03-02T15:58:05.744Z,1.96
2018-03-02T16:00:33.852Z,1.74
2018-03-02T16:03:01.983Z,1.93
2018-03-02T16:05:30.108Z,2.10
2018-03-02T16:07:58.226Z,2.03
2018-03-02T16:10:26.336Z,1.77
2018-03-02T16:12:54.471Z,1.74
2018-03-02T16:15:22.641Z,1.98
2018-03-02T16:17:50.772Z,2.11
2018-03-02T16:20:18.933Z,2.16
2018-03-02T16:22:47.040Z,2.10
2018-03-02T16:25:15.152Z,2.03
2018-03-02T16:27:43.272Z,2.25
2018-03-02T16:30:11.433Z,1.97
2018-03-02T16:32:39.574Z,2.11
2018-03-02T16:35:07.673Z,1.98
2018-03-02T16:37:36.379Z,2.18
2018-03-02T16:40:04.558Z,1.97
2018-03-02T16:42:32.681Z,2.03
2018-03-02T16:45:00.814Z,2.01
2018-03-02T16:47:28.973Z,2.14
2018-03-02T16:49:57.103Z,2.20
2018-03-02T16:52:25.235Z,1.85
2018-03-02T16:54:53.366Z,1.85
2018-03-02T16:57:21.560Z,1.77
2018-03-02T16:59:49.655Z,1.68
2018-03-02T17:02:17.896Z,1.77
2018-03-02T17:04:46.023Z,1.66
2018-03-02T17:07:14.177Z,1.90
2018-03-02T17:09:42.279Z,1.58
2018-03-02T17:12:10.425Z,1.53
2018-03-02T17:14:38.565Z,1.54
2018-03-02T17:17:09.705Z,1.50
2018-03-02T17:19:37.828Z,1.48
2018-03-02T17:22:06.030Z,1.37
2018-03-02T17:24:34.151Z,1.31
2018-03-02T17:27:02.393Z,1.25
2018-03-02T17:29:30.530Z,1.31
2018-03-02T17:31:58.610Z,1.51
2018-03-02T17:34:26.757Z,1.63
2018-03-02T17:36:54.860Z,1.49
2018-03-02T17:39:22.982Z,1.34
2018-03-02T17:41:51.116Z,1.49
2018-03-02T17:44:19.207Z,1.51
2018-03-02T17:46:47.323Z,1.36
2018-03-02T17:49:15.428Z,1.28
2018-03-02T17:51:43.553Z,1.26
2018-03-02T17:54:11.684Z,1.28
2018-03-02T17:56:39.841Z,1.15
2018-03-02T17:59:07.962Z,1.30
2018-03-02T18:01:36.078Z,1.41
2018-03-02T18:04:04.205Z,1.35
2018-03-02T18:06:32.330Z,1.18
2018-03-02T18:09:00.449Z,1.37
2018-03-02T18:11:28.584Z,1.52
2018-03-02T18:13:56.705Z,1.58
2018-03-02T18:16:24.817Z,1.54
2018-03-02T18:18:52.912Z,1.37
2018-03-02T18:21:21.047Z,1.31
2018-03-02T18:23:49.177Z,1.52
2018-03-02T18:26:17.434Z,1.35
2018-03-02T18:28:45.536Z,1.37
2018-03-02T18:31:13.653Z,1.33
2018-03-02T18:33:41.797Z,1.30
2018-03-02T18:36:09.925Z,1.49
2018-03-02T18:38:38.030Z,1.59
2018-03-02T18:41:06.205Z,1.30
2018-03-02T18:43:34.322Z,1.25
2018-03-02T18:46:02.450Z,1.17
2018-03-02T18:48:30.573Z,1.18
2018-03-02T18:50:58.682Z,1.04
2018-03-02T18:53:26.792Z,1.19
2018-03-02T18:55:54.896Z,1.07
2018-03-02T18:58:23.013Z,0.96
2018-03-02T19:00:51.159Z,1.08
2018-03-02T19:03:19.266Z,1.18
2018-03-02T19:05:47.383Z,1.03
2018-03-02T19:08:15.515Z,1.10
2018-03-02T19:10:43.681Z,1.23
2018-03-02T19:13:11.839Z,1.26
2018-03-02T19:15:39.969Z,1.05
2018-03-02T19:18:08.086Z,1.14
2018-03-02T19:20:36.198Z,1.16
2018-03-02T19:23:04.316Z,1.17
2018-03-02T19:25:32.491Z,1.36
2018-03-02T19:28:00.587Z,1.26
2018-03-02T19:30:28.729Z,1.47
2018-03-02T19:32:56.835Z,1.16
2018-03-02T19:35:24.928Z,1.05
2018-03-02T19:37:53.063Z,1.31
2018-03-02T19:40:21.178Z,1.54
2018-03-02T19:42:49.291Z,1.47
2018-03-02T19:45:17.438Z,1.37
2018-03-02T19:47:45.562Z,1.35
2018-03-02T19:50:13.762Z,1.49
2018-03-02T19:52:42.817Z,1.57
2018-03-02T19:55:10.920Z,1.73
2018-03-02T19:57:39.035Z,1.60
2018-03-02T20:00:07.177Z,1.72
2018-03-02T20:02:35.307Z,1.58
2018-03-02T20:05:03.413Z,1.66
2018-03-02T20:07:31.547Z,1.65
2018-03-02T20:09:59.652Z,1.64
2018-03-02T20:12:27.778Z,1.47
2018-03-02T20:14:55.905Z,1.48
2018-03-02T20:17:24.022Z,1.23
2018-03-02T20:19:52.165Z,1.32
2018-03-02T20:22:20.260Z,1.23
2018-03-02T20:24:48.362Z,1.21
2018-03-02T20:27:16.485Z,1.19
2018-03-02T20:29:44.592Z,1.19
2018-03-02T20:32:12.736Z,1.12
2018-03-02T20:34:40.858Z,1.10
2018-03-02T20:37:08.967Z,1.09
2018-03-02T20:39:37.082Z,1.35
2018-03-02T20:42:05.265Z,1.23
2018-03-02T20:44:33.408Z,1.14
2018-03-02T20:47:01.535Z,1.28
2018-03-02T20:49:29.690Z,1.38
2018-03-02T20:51:57.791Z,1.24
2018-03-02T20:54:25.906Z,1.21
2018-03-02T20:56:54.041Z,1.29
2018-03-02T20:59:22.145Z,1.33
2018-03-02T21:01:50.251Z,1.13
2018-03-02T21:04:18.365Z,1.18
2018-03-02T21:06:46.480Z,1.14
2018-03-02T21:09:14.596Z,1.32
2018-03-02T21:11:42.729Z,1.30
2018-03-02T21:14:10.846Z,1.17
2018-03-02T21:16:38.967Z,1.22
2018-03-02T21:19:07.084Z,1.13
2018-03-02T21:21:35.203Z,1.35
2018-03-02T21:24:03.326Z,1.31
2018-03-02T21:26:31.782Z,1.35
2018-03-02T21:28:59.902Z,1.35
2018-03-02T21:31:28.030Z,1.52
2018-03-02T21:33:56.127Z,1.28
2018-03-02T21:36:24.231Z,1.14
2018-03-02T21:38:52.344Z,1.33
2018-03-02T21:41:20.491Z,1.06
2018-03-02T21:43:48.769Z,1.15
2018-03-02T21:46:17.056Z,0.91
2018-03-02T21:48:45.175Z,1.26
2018-03-02T21:51:13.299Z,1.21
2018-03-02T21:53:41.414Z,1.15
2018-03-02T21:56:09.533Z,1.09
2018-03-02T21:58:37.636Z,0.80
2018-03-02T22:01:05.748Z,0.88
2018-03-02T22:03:33.844Z,0.83
2018-03-02T22:06:01.959Z,0.63
2018-03-02T22:08:30.151Z,0.75
2018-03-02T22:10:58.243Z,0.45
2018-03-02T22:13:26.373Z,0.52
2018-03-02T22:15:54.493Z,0.40
2018-03-02T22:18:26.226Z,0.50
2018-03-02T22:20:54.727Z,0.65
2018-03-02T22:23:22.853Z,1.05
2018-03-02T22:25:50.997Z,0.80
2018-03-02T22:28:19.130Z,0.33
2018-03-02T22:30:47.230Z,0.34
2018-03-02T22:33:15.341Z,0.64
2018-03-02T22:35:43.573Z,0.47
2018-03-02T22:38:11.703Z,0.17
2018-03-02T22:40:39.831Z,0.04
2018-03-02T22:43:07.961Z,0.20
2018-03-02T22:45:36.083Z,0.34
2018-03-02T22:48:04.220Z,0.30
2018-03-02T22:50:32.339Z,0.29
2018-03-02T22:53:00.486Z,0.36
2018-03-02T22:55:28.605Z,0.02
2018-03-02T22:57:56.752Z,0.24
2018-03-02T23:00:24.874Z,0.14
2018-03-02T23:02:52.995Z,-0.04
2018-03-02T23:05:21.129Z,0.23
2018-03-02T23:07:49.274Z,-0.28
2018-03-02T23:10:17.388Z,-0.14
2018-03-02T23:12:45.503Z,-0.13
2018-03-02T23:15:13.610Z,-0.19
2018-03-02T23:17:41.737Z,-0.23
2018-03-02T23:20:09.854Z,-0.13
2018-03-02T23:22:37.967Z,-0.16
2018-03-02T23:25:06.124Z,-0.05
2018-03-02T23:27:34.273Z,-0.02
2018-03-02T23:30:02.344Z,-0.04
2018-03-02T23:32:30.487Z,-0.02
2018-03-02T23:34:58.617Z,-0.17
2018-03-02T23:37:26.742Z,0.02
2018-03-02T23:39:54.858Z,0.16
2018-03-02T23:42:22.979Z,0.26
2018-03-02T23:44:51.117Z,-0.11
2018-03-02T23:47:19.229Z,0.11
2018-03-02T23:49:47.338Z,-0.04
2018-03-02T23:52:15.455Z,0.02
2018-03-02T23:54:43.561Z,0.11
2018-03-02T23:57:11.726Z,0.23
2018-03-02T23:59:39.836Z,-0.01
